Pittsburgh, Pennsylvania
Current Conditions -  °F | °C
As of 8:53 AM on Friday 24 Oct 2014 (Local Time) from KAGC Reporting Station
Scattered Clouds Scattered Clouds  
Wind Chill:   Ceiling: Unl
Heat Index:   Visibility: 8mi
Dew Point:   Wind: 3mph
Humidity: 76%   Direction: 290°WNW
Pressure: 30.11"   Gusts: NA
Location:  40.44°N, 80°W
Report Text: KAGC 241253Z 29003KT 8SM SCT014 07/03 A3011 RMK AO2 SLP203 T00670028
Loading
Personal Weather Stations






























Interactive Weather Map
Tropical Storm Tracking
New forecast layout! Learn more

10-Day Weather Forecast

Advertisements
Track Severe Weather on mobile